createdAt,value
2023-01-24T00:01:20.766Z,1.10
2023-01-24T00:03:49.053Z,1.02
2023-01-24T00:06:17.654Z,1.11
2023-01-24T00:08:45.891Z,1.10
2023-01-24T00:11:15.150Z,1.21
2023-01-24T00:13:43.060Z,1.24
2023-01-24T00:16:15.369Z,1.16
2023-01-24T00:18:43.840Z,1.13
2023-01-24T00:21:14.206Z,1.10
2023-01-24T00:23:43.410Z,1.09
2023-01-24T00:26:11.903Z,1.02
2023-01-24T00:28:39.985Z,0.93
2023-01-24T00:31:08.109Z,0.94
2023-01-24T00:33:37.396Z,1.02
2023-01-24T00:36:06.129Z,1.04
2023-01-24T00:38:33.988Z,1.06
2023-01-24T00:41:01.937Z,1.09
2023-01-24T00:43:30.725Z,1.09
2023-01-24T00:45:59.037Z,1.14
2023-01-24T00:48:27.279Z,1.03
2023-01-24T00:50:56.716Z,0.96
2023-01-24T00:53:27.177Z,0.94
2023-01-24T00:55:56.092Z,0.90
2023-01-24T00:58:25.029Z,0.93
2023-01-24T01:00:56.181Z,0.89
2023-01-24T01:03:24.287Z,0.85
2023-01-24T01:05:52.172Z,0.91
2023-01-24T01:08:21.585Z,0.94
2023-01-24T01:10:49.543Z,0.94
2023-01-24T01:13:17.280Z,0.89
2023-01-24T01:15:48.358Z,0.87
2023-01-24T01:18:16.568Z,0.86
2023-01-24T01:20:50.561Z,0.88
2023-01-24T01:23:18.555Z,0.73
2023-01-24T01:25:47.854Z,0.74
2023-01-24T01:28:15.820Z,0.69
2023-01-24T01:30:43.652Z,0.69
2023-01-24T01:33:11.569Z,0.75
2023-01-24T01:35:39.612Z,0.69
2023-01-24T01:38:08.074Z,0.69
2023-01-24T01:40:37.085Z,0.59
2023-01-24T01:43:14.207Z,0.68
2023-01-24T01:45:44.373Z,0.73
2023-01-24T01:48:20.899Z,0.67
2023-01-24T01:50:55.165Z,0.60
2023-01-24T01:53:25.818Z,0.61
2023-01-24T01:55:59.824Z,0.55
2023-01-24T01:58:29.668Z,0.53
2023-01-24T02:00:57.662Z,0.60
2023-01-24T02:03:43.731Z,0.50
2023-01-24T02:06:35.159Z,0.44
2023-01-24T02:09:06.680Z,0.33
2023-01-24T02:11:40.859Z,0.43
2023-01-24T02:14:30.610Z,0.39
2023-01-24T02:16:58.598Z,0.31
2023-01-24T02:19:42.038Z,0.28
2023-01-24T02:22:17.600Z,0.29
2023-01-24T02:24:52.905Z,0.29
2023-01-24T02:27:22.695Z,0.28
2023-01-24T02:29:51.544Z,0.23
2023-01-24T02:35:25.729Z,0.28
2023-01-24T02:37:54.124Z,0.18
2023-01-24T02:40:23.043Z,0.18
2023-01-24T02:42:53.902Z,0.13
2023-01-24T02:45:25.787Z,0.11
2023-01-24T02:47:58.088Z,0.08
2023-01-24T02:50:29.404Z,0.04
2023-01-24T02:53:14.879Z,0.10
2023-01-24T02:55:56.663Z,0.07
2023-01-24T02:58:26.195Z,-0.04
2023-01-24T03:00:54.179Z,-0.02
2023-01-24T03:03:22.316Z,-0.02
2023-01-24T03:05:57.775Z,-0.09
2023-01-24T03:08:26.608Z,-0.07
2023-01-24T03:10:54.731Z,-0.04
2023-01-24T03:13:40.928Z,-0.02
2023-01-24T03:16:27.869Z,-0.06
2023-01-24T03:19:13.269Z,-0.10
2023-01-24T03:21:58.871Z,-0.09
2023-01-24T03:24:44.857Z,-0.07
2023-01-24T03:27:30.013Z,-0.01
2023-01-24T03:30:15.363Z,0.01
2023-01-24T03:33:02.224Z,0.02
2023-01-24T03:35:31.058Z,0.01
2023-01-24T03:38:16.870Z,0.04
2023-01-24T03:40:44.944Z,0.06
2023-01-24T03:43:13.349Z,-0.01
2023-01-24T03:45:41.952Z,-0.04
2023-01-24T03:48:14.091Z,-0.07
2023-01-24T03:51:01.284Z,-0.09
2023-01-24T03:53:31.137Z,-0.14
2023-01-24T03:56:00.929Z,-0.09
2023-01-24T03:58:30.326Z,-0.09
2023-01-24T04:00:59.126Z,-0.09
2023-01-24T04:03:28.577Z,-0.18
2023-01-24T04:05:56.494Z,-0.22
2023-01-24T04:08:24.405Z,-0.19
2023-01-24T04:10:52.357Z,-0.22
2023-01-24T04:13:20.217Z,-0.25
2023-01-24T04:15:48.056Z,-0.25
2023-01-24T04:18:16.068Z,-0.25
2023-01-24T04:20:45.397Z,-0.28
2023-01-24T04:23:13.722Z,-0.24
2023-01-24T04:25:41.700Z,-0.22
2023-01-24T04:28:09.661Z,-0.19
2023-01-24T04:30:37.570Z,-0.24
2023-01-24T04:33:05.684Z,-0.15
2023-01-24T04:35:33.841Z,-0.23
2023-01-24T04:38:04.103Z,-0.21
2023-01-24T04:40:32.207Z,-0.18
2023-01-24T04:43:00.521Z,-0.19
2023-01-24T04:45:28.468Z,-0.20
2023-01-24T04:47:56.429Z,-0.25
2023-01-24T04:50:24.491Z,-0.22
2023-01-24T04:52:52.349Z,-0.18
2023-01-24T04:55:22.114Z,-0.23
2023-01-24T04:57:50.139Z,-0.21
2023-01-24T05:00:21.428Z,-0.22
2023-01-24T05:02:49.451Z,-0.19
2023-01-24T05:05:17.809Z,-0.15
2023-01-24T05:07:45.896Z,-0.17
2023-01-24T05:10:15.871Z,-0.19
2023-01-24T05:12:45.420Z,-0.20
2023-01-24T05:15:13.428Z,-0.16
2023-01-24T05:17:41.313Z,-0.31
2023-01-24T05:20:10.888Z,-0.28
2023-01-24T05:22:39.158Z,-0.09
2023-01-24T05:25:08.433Z,-0.07
2023-01-24T05:27:36.514Z,-0.18
2023-01-24T05:30:07.823Z,-0.18
2023-01-24T05:32:36.117Z,-0.20
2023-01-24T05:35:04.823Z,-0.22
2023-01-24T05:37:33.736Z,-0.15
2023-01-24T05:40:01.989Z,-0.16
2023-01-24T05:42:30.275Z,-0.22
2023-01-24T05:44:58.593Z,-0.18
2023-01-24T05:47:28.218Z,-0.19
2023-01-24T05:49:59.321Z,-0.22
2023-01-24T05:52:27.490Z,-0.31
2023-01-24T05:54:55.595Z,-0.28
2023-01-24T05:57:23.765Z,-0.29
2023-01-24T05:59:51.895Z,-0.25
2023-01-24T06:02:20.008Z,-0.24
2023-01-24T06:04:49.487Z,-0.30
2023-01-24T06:07:17.658Z,-0.25
2023-01-24T06:09:45.517Z,-0.17
2023-01-24T06:12:13.432Z,-0.21
2023-01-24T06:14:41.457Z,-0.21
2023-01-24T06:17:09.430Z,-0.22
2023-01-24T06:19:38.304Z,-0.22
2023-01-24T06:22:18.459Z,-0.21
2023-01-24T06:24:47.114Z,-0.21
2023-01-24T06:27:15.796Z,-0.21
2023-01-24T06:29:44.516Z,-0.26
2023-01-24T06:32:27.952Z,-0.25
2023-01-24T06:35:16.626Z,-0.28
2023-01-24T06:37:49.431Z,-0.36
2023-01-24T06:40:20.700Z,-0.35
2023-01-24T06:42:49.416Z,-0.33
2023-01-24T06:45:17.878Z,-0.40
2023-01-24T06:47:46.350Z,-0.34
2023-01-24T06:50:17.443Z,-0.30
2023-01-24T06:52:48.624Z,-0.27
2023-01-24T06:55:17.124Z,-0.17
2023-01-24T06:57:47.468Z,-0.22
2023-01-24T07:00:16.870Z,-0.22
2023-01-24T07:02:44.693Z,-0.24
2023-01-24T07:05:12.733Z,-0.19
2023-01-24T07:07:40.956Z,-0.17
2023-01-24T07:10:12.107Z,-0.24
2023-01-24T07:12:40.096Z,-0.18
2023-01-24T07:15:08.745Z,-0.20
2023-01-24T07:17:37.298Z,-0.13
2023-01-24T07:20:06.129Z,-0.18
2023-01-24T07:22:35.110Z,-0.16
2023-01-24T07:25:03.992Z,-0.16
2023-01-24T07:27:36.760Z,-0.18
2023-01-24T07:30:06.427Z,-0.14
2023-01-24T07:32:34.344Z,-0.13
2023-01-24T07:35:02.386Z,-0.06
2023-01-24T07:37:31.690Z,-0.03
2023-01-24T07:39:59.813Z,-0.08
2023-01-24T07:42:27.704Z,-0.04
2023-01-24T07:44:58.003Z,-0.02
2023-01-24T07:47:27.630Z,-0.04
2023-01-24T07:49:55.537Z,-0.02
2023-01-24T07:52:23.600Z,0.02
2023-01-24T07:54:51.941Z,-0.07
2023-01-24T07:57:19.988Z,-0.04
2023-01-24T07:59:48.031Z,-0.03
2023-01-24T08:02:17.458Z,-0.04
2023-01-24T08:04:45.420Z,0.01
2023-01-24T08:07:19.843Z,-0.05
2023-01-24T08:09:49.385Z,0.04
2023-01-24T08:12:18.691Z,0.12
2023-01-24T08:14:46.922Z,0.01
2023-01-24T08:17:15.046Z,-0.01
2023-01-24T08:19:59.911Z,0.06
2023-01-24T08:22:28.165Z,0.09
2023-01-24T08:24:56.200Z,0.17
2023-01-24T08:27:24.615Z,0.26
2023-01-24T08:29:52.725Z,0.31
2023-01-24T08:32:20.636Z,0.37
2023-01-24T08:34:50.315Z,0.30
2023-01-24T08:37:19.350Z,0.37
2023-01-24T08:39:47.464Z,0.51
2023-01-24T08:42:15.520Z,0.58
2023-01-24T08:44:43.983Z,0.57
2023-01-24T08:47:12.403Z,0.55
2023-01-24T08:49:40.362Z,0.67
2023-01-24T08:52:10.018Z,0.54
2023-01-24T08:54:38.196Z,0.48
2023-01-24T08:57:07.736Z,0.64
2023-01-24T08:59:35.786Z,0.68
2023-01-24T09:02:05.071Z,0.61
2023-01-24T09:04:33.360Z,0.56
2023-01-24T09:07:01.675Z,0.44
2023-01-24T09:09:31.164Z,0.48
2023-01-24T09:11:59.283Z,0.35
2023-01-24T09:14:27.662Z,0.38
2023-01-24T09:16:56.286Z,0.35
2023-01-24T09:19:25.018Z,0.53
2023-01-24T09:21:55.905Z,0.52
2023-01-24T09:24:23.965Z,0.53
2023-01-24T09:26:53.529Z,0.51
2023-01-24T09:29:21.427Z,0.50
2023-01-24T09:31:50.096Z,0.65
2023-01-24T09:34:18.311Z,0.69
2023-01-24T09:36:49.494Z,0.93
2023-01-24T09:39:17.750Z,0.72
2023-01-24T09:42:16.074Z,0.78
2023-01-24T09:44:47.383Z,0.82
2023-01-24T09:47:21.962Z,0.79
2023-01-24T09:49:55.445Z,1.03
2023-01-24T09:52:31.854Z,1.11
2023-01-24T09:55:05.710Z,0.93
2023-01-24T09:57:51.643Z,0.91
2023-01-24T10:00:24.700Z,0.86
2023-01-24T10:02:53.171Z,1.07
2023-01-24T10:05:24.811Z,0.92
2023-01-24T10:08:08.209Z,0.91
2023-01-24T10:10:49.044Z,0.99
2023-01-24T10:14:32.991Z,0.90
2023-01-24T10:17:43.693Z,1.12
2023-01-24T10:20:33.847Z,1.00
2023-01-24T10:23:18.043Z,1.01
2023-01-24T10:25:56.337Z,1.00
2023-01-24T10:28:28.705Z,0.96
2023-01-24T10:31:06.873Z,1.12
2023-01-24T10:33:43.305Z,1.07
2023-01-24T10:36:16.139Z,1.24
2023-01-24T10:38:44.694Z,1.15
2023-01-24T10:41:21.669Z,1.10
2023-01-24T10:43:56.404Z,1.23
2023-01-24T10:47:17.601Z,1.29
2023-01-24T10:49:52.641Z,1.47
2023-01-24T10:52:22.208Z,1.17
2023-01-24T10:54:54.122Z,1.29
2023-01-24T10:57:43.698Z,1.38
2023-01-24T11:00:31.450Z,1.30
2023-01-24T11:03:01.186Z,1.37
2023-01-24T11:05:41.255Z,1.25
2023-01-24T11:08:20.322Z,1.38
2023-01-24T11:10:48.506Z,1.22
2023-01-24T11:13:36.357Z,1.21
2023-01-24T11:16:07.999Z,1.29
2023-01-24T11:18:38.189Z,1.32
2023-01-24T11:21:10.182Z,1.47
2023-01-24T11:23:38.712Z,1.35
2023-01-24T11:26:09.134Z,1.36
2023-01-24T11:28:39.489Z,1.35
2023-01-24T11:31:19.801Z,1.35
2023-01-24T11:34:02.444Z,1.42
2023-01-24T11:36:42.441Z,1.37
2023-01-24T11:39:18.899Z,1.57
2023-01-24T11:41:53.274Z,1.59
2023-01-24T11:44:43.386Z,1.48
2023-01-24T11:47:16.272Z,1.47
2023-01-24T11:50:23.333Z,1.46
2023-01-24T11:53:04.756Z,1.50
2023-01-24T11:55:42.427Z,1.59
2023-01-24T11:58:30.985Z,1.54
2023-01-24T12:01:07.881Z,1.53
2023-01-24T12:03:54.915Z,1.61
2023-01-24T12:06:32.841Z,1.69
2023-01-24T12:09:19.879Z,1.69
2023-01-24T12:11:56.437Z,1.71
2023-01-24T12:14:47.962Z,1.77
2023-01-24T12:17:30.490Z,1.63
2023-01-24T12:20:28.936Z,1.85
2023-01-24T12:23:01.723Z,1.91
2023-01-24T12:25:35.055Z,1.83
2023-01-24T12:28:06.637Z,2.01
2023-01-24T12:30:40.404Z,1.86
2023-01-24T12:33:19.905Z,1.85
2023-01-24T12:35:51.305Z,1.90
2023-01-24T12:38:23.313Z,1.99
2023-01-24T12:40:58.187Z,1.76
2023-01-24T12:43:34.257Z,1.69
2023-01-24T12:46:14.500Z,1.61
2023-01-24T12:48:48.713Z,1.54
2023-01-24T12:51:23.425Z,1.52
2023-01-24T12:54:08.454Z,1.54
2023-01-24T12:56:48.263Z,1.49
2023-01-24T12:59:21.639Z,1.53
2023-01-24T13:02:07.473Z,1.60
2023-01-24T13:04:45.569Z,1.55
2023-01-24T13:07:25.711Z,1.60
2023-01-24T13:10:02.777Z,1.62
2023-01-24T13:12:33.477Z,1.66
2023-01-24T13:15:04.642Z,1.69
2023-01-24T13:17:56.542Z,1.70
2023-01-24T13:20:50.004Z,1.74
2023-01-24T13:23:39.539Z,1.86
2023-01-24T13:26:25.693Z,2.07
2023-01-24T13:29:09.365Z,1.93
2023-01-24T13:31:48.615Z,1.96
2023-01-24T13:34:21.345Z,1.80
2023-01-24T13:36:52.505Z,1.87
2023-01-24T13:39:33.852Z,1.97
2023-01-24T13:42:08.063Z,2.04
2023-01-24T13:44:40.165Z,2.20
2023-01-24T13:47:38.459Z,2.06
2023-01-24T13:50:20.380Z,1.97
2023-01-24T13:52:51.218Z,2.21
2023-01-24T13:55:58.536Z,2.30
2023-01-24T13:58:35.854Z,2.30
2023-01-24T14:01:05.911Z,2.21
2023-01-24T14:03:37.638Z,2.21
2023-01-24T14:06:16.611Z,2.02
2023-01-24T14:09:03.786Z,2.12
2023-01-24T14:11:39.022Z,1.90
2023-01-24T14:14:39.201Z,1.94
2023-01-24T14:17:49.644Z,1.81
2023-01-24T14:20:32.360Z,1.84
2023-01-24T14:23:03.574Z,1.79
2023-01-24T14:25:44.429Z,1.74
2023-01-24T14:28:19.323Z,1.89
2023-01-24T14:30:50.786Z,1.99
2023-01-24T14:33:45.765Z,1.94
2023-01-24T14:36:22.678Z,1.82
2023-01-24T14:38:50.569Z,1.82
2023-01-24T14:41:24.360Z,2.00
2023-01-24T14:43:52.638Z,1.99
2023-01-24T14:46:24.134Z,1.91
2023-01-24T14:48:53.658Z,1.75
2023-01-24T14:51:24.977Z,1.78
2023-01-24T14:53:54.905Z,1.81
2023-01-24T14:56:25.656Z,1.76
2023-01-24T14:58:55.890Z,1.81
2023-01-24T15:01:34.873Z,1.80
2023-01-24T15:04:05.541Z,1.86
2023-01-24T15:06:35.727Z,1.84
2023-01-24T15:09:04.616Z,1.89
2023-01-24T15:11:37.131Z,1.81
2023-01-24T15:14:07.586Z,1.69
2023-01-24T15:16:37.972Z,1.73
2023-01-24T15:19:12.784Z,1.68
2023-01-24T15:21:42.246Z,1.71
2023-01-24T15:24:21.627Z,1.59
2023-01-24T15:26:49.569Z,1.64
2023-01-24T15:29:45.800Z,1.67
2023-01-24T15:32:41.755Z,1.77
2023-01-24T15:35:39.655Z,1.60
2023-01-24T15:38:17.398Z,1.69
2023-01-24T15:40:51.150Z,1.73
2023-01-24T15:43:40.353Z,1.70
2023-01-24T15:46:28.293Z,1.58
2023-01-24T15:49:00.037Z,1.64
2023-01-24T15:51:37.659Z,1.62
2023-01-24T15:54:11.925Z,1.62
2023-01-24T15:56:51.804Z,1.69
2023-01-24T15:59:22.963Z,1.70
2023-01-24T16:01:50.989Z,1.67
2023-01-24T16:04:21.532Z,1.69
2023-01-24T16:06:51.547Z,1.64
2023-01-24T16:09:19.815Z,1.61
2023-01-24T16:11:49.693Z,1.58
2023-01-24T16:14:21.154Z,1.59
2023-01-24T16:16:50.713Z,1.56
2023-01-24T16:19:20.937Z,1.58
2023-01-24T16:21:58.768Z,1.56
2023-01-24T16:24:31.915Z,1.61
2023-01-24T16:27:01.820Z,1.53
2023-01-24T16:29:31.817Z,1.44
2023-01-24T16:31:59.680Z,1.49
2023-01-24T16:34:27.592Z,1.41
2023-01-24T16:36:56.904Z,1.47
2023-01-24T16:39:25.026Z,1.38
2023-01-24T16:41:53.474Z,1.35
2023-01-24T16:44:21.356Z,1.40
2023-01-24T16:46:51.131Z,1.37
2023-01-24T16:49:19.474Z,1.23
2023-01-24T16:51:48.014Z,1.18
2023-01-24T16:54:17.172Z,1.24
2023-01-24T16:56:46.064Z,1.20
2023-01-24T16:59:14.114Z,1.14
2023-01-24T17:01:42.742Z,1.19
2023-01-24T17:04:14.229Z,1.25
2023-01-24T17:06:42.133Z,1.18
2023-01-24T17:09:11.294Z,1.14
2023-01-24T17:11:40.536Z,1.11
2023-01-24T17:14:08.429Z,1.14
2023-01-24T17:16:36.249Z,1.19
2023-01-24T17:19:04.394Z,1.28
2023-01-24T17:21:32.415Z,1.29
2023-01-24T17:24:00.482Z,1.30
2023-01-24T17:26:28.505Z,1.31
2023-01-24T17:28:57.758Z,1.32
2023-01-24T17:31:26.543Z,1.22
2023-01-24T17:33:57.646Z,1.21
2023-01-24T17:36:25.761Z,1.29
2023-01-24T17:38:54.924Z,1.32
2023-01-24T17:41:24.152Z,1.41
2023-01-24T17:43:53.509Z,1.40
2023-01-24T17:46:25.898Z,1.46
2023-01-24T17:48:53.830Z,1.50
2023-01-24T17:51:26.128Z,1.47
2023-01-24T17:53:55.166Z,1.39
2023-01-24T17:56:23.016Z,1.38
2023-01-24T17:58:50.829Z,1.38
2023-01-24T18:01:19.108Z,1.36
2023-01-24T18:03:48.773Z,1.34
2023-01-24T18:06:18.127Z,1.29
2023-01-24T18:08:46.972Z,1.24
2023-01-24T18:11:16.835Z,1.24
2023-01-24T18:13:45.119Z,1.31
2023-01-24T18:16:15.078Z,1.34
2023-01-24T18:18:43.323Z,1.36
2023-01-24T18:21:14.060Z,1.36
2023-01-24T18:23:41.939Z,1.32
2023-01-24T18:26:10.269Z,1.35
2023-01-24T18:28:38.763Z,1.32
2023-01-24T18:31:11.428Z,1.32
2023-01-24T18:33:40.084Z,1.30
2023-01-24T18:36:09.402Z,1.29
2023-01-24T18:38:39.093Z,1.35
2023-01-24T18:41:07.132Z,1.40
2023-01-24T18:43:37.259Z,1.38
2023-01-24T18:46:06.629Z,1.35
2023-01-24T18:48:35.119Z,1.39
2023-01-24T18:51:06.123Z,1.38
2023-01-24T18:53:34.070Z,1.42
2023-01-24T18:56:05.137Z,1.42
2023-01-24T18:58:34.876Z,1.50
2023-01-24T19:01:10.853Z,1.55
2023-01-24T19:03:39.000Z,1.55
2023-01-24T19:06:08.155Z,1.50
2023-01-24T19:08:36.445Z,1.45
2023-01-24T19:11:12.525Z,1.41
2023-01-24T19:13:41.996Z,1.38
2023-01-24T19:16:10.782Z,1.35
2023-01-24T19:18:39.382Z,1.34
2023-01-24T19:21:08.579Z,1.35
2023-01-24T19:23:37.785Z,1.34
2023-01-24T19:26:06.648Z,1.37
2023-01-24T19:28:36.859Z,1.40
2023-01-24T19:31:06.295Z,1.38
2023-01-24T19:33:34.588Z,1.38
2023-01-24T19:36:06.229Z,1.41
2023-01-24T19:38:34.581Z,1.39
2023-01-24T19:41:04.139Z,1.40
2023-01-24T19:43:31.976Z,1.38
2023-01-24T19:48:52.153Z,1.44
2023-01-24T19:51:20.515Z,1.37
2023-01-24T19:53:50.719Z,1.32
2023-01-24T19:56:19.171Z,1.31
2023-01-24T19:58:47.239Z,1.27
2023-01-24T20:01:19.745Z,1.29
2023-01-24T20:03:47.933Z,1.39
2023-01-24T20:06:18.139Z,1.45
2023-01-24T20:08:47.164Z,1.44
2023-01-24T20:11:15.418Z,1.42
2023-01-24T20:13:43.900Z,1.29
2023-01-24T20:16:18.030Z,1.20
2023-01-24T20:18:50.078Z,1.27
2023-01-24T20:21:18.494Z,1.28
2023-01-24T20:23:46.717Z,1.20
2023-01-24T20:26:16.155Z,1.16
2023-01-24T20:28:44.611Z,1.08
2023-01-24T20:31:14.691Z,1.02
2023-01-24T20:33:44.074Z,0.98
2023-01-24T20:36:13.775Z,0.95
2023-01-24T20:38:42.565Z,0.88
2023-01-24T20:41:13.550Z,0.88
2023-01-24T20:43:42.574Z,0.86
2023-01-24T20:46:20.050Z,0.89
2023-01-24T20:48:50.643Z,0.83
2023-01-24T20:51:18.965Z,0.87
2023-01-24T20:53:47.109Z,0.94
2023-01-24T20:56:18.413Z,0.99
2023-01-24T20:58:46.691Z,0.94
2023-01-24T21:01:16.873Z,0.88
2023-01-24T21:03:45.117Z,0.81
2023-01-24T21:06:16.999Z,0.91
2023-01-24T21:08:45.861Z,1.01
2023-01-24T21:11:18.621Z,1.06
2023-01-24T21:13:51.295Z,1.14
2023-01-24T21:16:19.916Z,1.05
2023-01-24T21:18:51.514Z,1.08
2023-01-24T21:21:23.417Z,1.07
2023-01-24T21:23:51.775Z,1.08
2023-01-24T21:26:21.085Z,1.13
2023-01-24T21:28:51.127Z,1.18
2023-01-24T21:31:21.405Z,1.18
2023-01-24T21:33:57.114Z,1.24
2023-01-24T21:36:28.377Z,1.25
2023-01-24T21:38:56.296Z,1.12
2023-01-24T21:41:41.954Z,1.01
2023-01-24T21:44:10.937Z,1.04
2023-01-24T21:46:38.949Z,1.16
2023-01-24T21:49:07.170Z,1.16
2023-01-24T21:51:39.157Z,1.11
2023-01-24T21:54:08.218Z,1.13
2023-01-24T21:56:55.828Z,1.17
2023-01-24T21:59:25.712Z,1.12
2023-01-24T22:01:56.438Z,1.07
2023-01-24T22:04:31.143Z,1.09
2023-01-24T22:07:01.314Z,1.08
2023-01-24T22:09:31.916Z,1.06
2023-01-24T22:11:59.979Z,1.10
2023-01-24T22:14:30.148Z,1.13
2023-01-24T22:17:00.501Z,1.15
2023-01-24T22:19:41.029Z,1.11
2023-01-24T22:22:28.759Z,1.18
2023-01-24T22:25:06.155Z,1.11
2023-01-24T22:27:35.647Z,1.10
2023-01-24T22:30:05.070Z,0.97
2023-01-24T22:32:33.491Z,0.91
2023-01-24T22:35:01.964Z,0.92
2023-01-24T22:37:35.811Z,0.89
2023-01-24T22:40:03.745Z,1.03
2023-01-24T22:42:31.673Z,1.03
2023-01-24T22:44:59.611Z,0.92
2023-01-24T22:47:27.852Z,1.01
2023-01-24T22:49:55.629Z,1.03
2023-01-24T22:52:23.555Z,0.91
2023-01-24T22:54:52.942Z,0.91
2023-01-24T22:57:22.339Z,0.83
2023-01-24T22:59:52.291Z,0.93
2023-01-24T23:02:20.275Z,0.94
2023-01-24T23:04:48.106Z,0.90
2023-01-24T23:07:18.257Z,0.97
2023-01-24T23:09:47.432Z,1.03
2023-01-24T23:12:33.916Z,1.02
2023-01-24T23:15:19.163Z,1.08
2023-01-24T23:17:49.338Z,1.14
2023-01-24T23:23:26.514Z,1.10
2023-01-24T23:25:54.553Z,1.15
2023-01-24T23:28:25.991Z,1.13
2023-01-24T23:31:00.858Z,1.03
2023-01-24T23:33:34.070Z,1.10
2023-01-24T23:36:03.006Z,1.01
2023-01-24T23:38:31.262Z,1.00
2023-01-24T23:40:59.245Z,1.01
2023-01-24T23:46:20.344Z,1.12
2023-01-24T23:48:49.055Z,1.06
2023-01-24T23:51:17.034Z,0.95
2023-01-24T23:53:45.903Z,0.96
2023-01-24T23:56:13.802Z,1.03
2023-01-24T23:58:43.308Z,1.04
